Time;durP1;ratioP1;P1;durP2;ratioP2;P2;SDS_P1;SDS_P2;PMS_P1;PMS_P2;Temp;Humidity;BMP_temperature;BMP_pressure;BME280_temperature;BME280_humidity;BME280_pressure;Samples;Min_cycle;Max_cycle;Signal;HPM_P1;HPM_P2
2023/01/03 00:01:23;;;;;;;1.90;1.20;;;9.90;99.90;;;;;;5085765;28;20422;-62
2023/01/03 00:03:51;;;;;;;2.92;1.80;;;9.90;99.90;;;;;;5088119;28;20117;-61
2023/01/03 00:06:26;;;;;;;2.92;1.70;;;9.90;99.90;;;;;;5080964;28;20585;-62
2023/01/03 00:08:53;;;;;;;2.33;1.58;;;9.90;99.90;;;;;;5088304;28;20055;-62
2023/01/03 00:14:18;;;;;;;3.13;1.25;;;9.90;99.90;;;;;;5085458;28;20131;-62
2023/01/03 00:16:44;;;;;;;5.55;1.50;;;9.80;99.90;;;;;;5086706;28;20023;-63
2023/01/03 00:19:12;;;;;;;2.17;1.52;;;9.80;99.90;;;;;;5087811;28;20028;-62
2023/01/03 00:21:38;;;;;;;3.17;1.55;;;9.80;99.90;;;;;;5086918;28;20072;-62
2023/01/03 00:24:04;;;;;;;2.22;1.63;;;9.80;99.90;;;;;;5085877;28;20034;-62
2023/01/03 00:26:30;;;;;;;3.15;1.50;;;9.80;99.90;;;;;;5087909;28;20048;-61
2023/01/03 00:28:56;;;;;;;3.33;1.63;;;9.70;99.90;;;;;;5086316;28;20100;-62
2023/01/03 00:31:22;;;;;;;2.67;1.52;;;9.70;99.90;;;;;;5086572;28;20476;-61
2023/01/03 00:33:48;;;;;;;3.00;1.67;;;9.70;99.90;;;;;;5087837;28;20055;-62
2023/01/03 00:36:13;;;;;;;1.67;1.30;;;9.70;99.90;;;;;;5086560;28;20020;-61
2023/01/03 00:38:39;;;;;;;3.03;1.63;;;9.80;99.90;;;;;;5084503;28;20020;-61
2023/01/03 00:41:11;;;;;;;2.25;1.90;;;9.80;99.90;;;;;;5086211;28;20119;-62
2023/01/03 00:43:38;;;;;;;4.57;2.15;;;9.80;99.90;;;;;;5086400;28;20396;-61
2023/01/03 00:46:05;;;;;;;4.20;1.63;;;9.70;99.90;;;;;;5086430;28;20036;-62
2023/01/03 00:48:31;;;;;;;4.43;1.95;;;9.80;99.90;;;;;;5086013;28;20032;-61
2023/01/03 00:51:02;;;;;;;2.92;1.67;;;9.80;99.90;;;;;;5089063;28;20442;-63
2023/01/03 00:53:28;;;;;;;2.63;1.75;;;9.70;99.90;;;;;;5085581;28;20079;-62
2023/01/03 00:55:54;;;;;;;3.80;2.15;;;9.70;99.90;;;;;;5087057;28;20152;-62
2023/01/03 00:58:20;;;;;;;6.13;2.17;;;9.70;99.90;;;;;;5087359;28;20063;-62
2023/01/03 01:00:45;;;;;;;2.60;1.58;;;9.70;99.90;;;;;;5084880;28;20052;-62
2023/01/03 01:03:11;;;;;;;3.72;1.73;;;9.70;99.90;;;;;;5088468;28;20107;-61
2023/01/03 01:05:36;;;;;;;3.90;1.65;;;9.70;99.90;;;;;;5083371;28;20028;-62
2023/01/03 01:08:02;;;;;;;3.15;1.60;;;9.70;99.90;;;;;;5086907;28;20071;-61
2023/01/03 01:10:27;;;;;;;3.05;1.73;;;9.70;99.90;;;;;;5084310;28;20020;-62
2023/01/03 01:12:57;;;;;;;4.25;1.90;;;9.70;99.90;;;;;;5088357;28;20510;-62
2023/01/03 01:15:22;;;;;;;6.05;1.65;;;9.60;99.90;;;;;;5085427;28;20027;-59
2023/01/03 01:17:48;;;;;;;3.38;1.50;;;9.60;99.90;;;;;;5085807;28;20032;-60
2023/01/03 01:20:13;;;;;;;3.53;1.60;;;9.60;99.90;;;;;;5085631;28;20032;-59
2023/01/03 01:22:39;;;;;;;2.03;1.00;;;9.60;99.90;;;;;;5084738;28;20648;-60
2023/01/03 01:25:05;;;;;;;5.13;1.40;;;9.60;99.90;;;;;;5089723;28;20515;-57
2023/01/03 01:27:30;;;;;;;2.80;1.23;;;9.60;99.90;;;;;;5095348;28;20194;-59
2023/01/03 01:29:56;;;;;;;2.83;1.20;;;9.60;99.90;;;;;;5089091;28;20107;-59
2023/01/03 01:32:22;;;;;;;2.83;1.40;;;9.60;99.80;;;;;;5096830;28;20081;-59
2023/01/03 01:34:47;;;;;;;4.25;1.35;;;9.60;99.10;;;;;;5091801;28;20085;-59
2023/01/03 01:37:13;;;;;;;1.50;0.90;;;9.60;98.40;;;;;;5085659;28;20076;-59
2023/01/03 01:39:38;;;;;;;2.78;1.27;;;9.60;98.10;;;;;;5086235;28;20063;-59
2023/01/03 01:44:55;;;;;;;5.82;1.33;;;9.50;95.40;;;;;;5086274;28;20067;-60
2023/01/03 01:47:38;;;;;;;1.95;1.38;;;9.40;94.50;;;;;;5089194;28;20047;-59
2023/01/03 01:50:10;;;;;;;2.97;1.20;;;9.30;92.90;;;;;;5078510;28;20074;-59
2023/01/03 01:52:39;;;;;;;5.88;1.02;;;9.10;92.80;;;;;;5084932;28;20047;-58
2023/01/03 01:55:17;;;;;;;2.67;1.08;;;9.00;91.60;;;;;;5084512;28;20024;-59
2023/01/03 01:57:43;;;;;;;5.78;1.30;;;8.90;91.80;;;;;;5085838;28;20035;-59
2023/01/03 02:00:09;;;;;;;2.47;0.90;;;8.80;92.50;;;;;;5085948;28;20399;-59
2023/01/03 02:02:35;;;;;;;2.25;0.75;;;8.70;92.40;;;;;;5089682;28;20028;-60
2023/01/03 02:05:05;;;;;;;1.63;1.00;;;8.70;92.50;;;;;;5089234;28;20024;-58
2023/01/03 02:07:31;;;;;;;0.90;0.82;;;8.60;92.70;;;;;;5087131;28;20035;-59
2023/01/03 02:09:57;;;;;;;2.03;1.00;;;8.50;91.50;;;;;;5087481;28;20024;-59
2023/01/03 02:15:32;;;;;;;4.75;1.00;;;8.30;91.20;;;;;;5086862;28;20569;-59
2023/01/03 02:18:51;;;;;;;1.77;1.00;;;8.20;91.50;;;;;;5087437;28;20039;-59
2023/01/03 02:21:28;;;;;;;2.20;0.80;;;8.10;91.80;;;;;;5028438;28;20433;-60
2023/01/03 02:24:37;;;;;;;2.80;0.88;;;8.00;92.30;;;;;;5023965;28;20037;-60
2023/01/03 02:27:44;;;;;;;4.82;1.00;;;7.90;92.80;;;;;;5084552;28;20076;-59
2023/01/03 02:30:18;;;;;;;1.90;0.77;;;7.80;93.40;;;;;;5090205;28;20035;-58
2023/01/03 02:32:51;;;;;;;1.40;0.80;;;7.70;93.30;;;;;;5089540;28;20032;-59
2023/01/03 02:35:28;;;;;;;2.67;0.85;;;7.60;93.30;;;;;;5092414;28;20028;-56
2023/01/03 02:38:21;;;;;;;1.77;0.90;;;7.50;94.00;;;;;;5080130;28;20024;-56
2023/01/03 02:41:04;;;;;;;2.35;1.10;;;7.40;94.30;;;;;;5069235;28;20024;-59
2023/01/03 02:43:45;;;;;;;4.10;1.10;;;7.40;94.80;;;;;;5086704;28;20035;-57
2023/01/03 02:46:26;;;;;;;2.15;0.90;;;7.30;95.50;;;;;;5071401;28;20505;-59
2023/01/03 02:49:00;;;;;;;1.80;1.00;;;7.20;95.70;;;;;;5089785;28;20028;-58
2023/01/03 02:51:32;;;;;;;1.23;0.90;;;7.10;95.70;;;;;;5071566;28;20492;-58
2023/01/03 02:53:59;;;;;;;1.55;0.90;;;7.10;96.10;;;;;;5071540;28;20085;-57
2023/01/03 02:56:34;;;;;;;1.48;0.70;;;7.00;96.80;;;;;;5111073;28;20031;-59
2023/01/03 02:59:06;;;;;;;3.25;1.00;;;7.00;97.30;;;;;;5111766;28;20039;-59
2023/01/03 03:01:33;;;;;;;3.60;0.90;;;6.90;97.40;;;;;;5070099;28;20519;-58
2023/01/03 03:04:00;;;;;;;3.50;1.00;;;6.80;97.60;;;;;;5111697;28;20020;-58
2023/01/03 03:06:35;;;;;;;1.17;0.90;;;6.80;98.00;;;;;;5085136;28;20039;-60
2023/01/03 03:09:00;;;;;;;1.30;0.88;;;6.70;99.00;;;;;;5070822;28;20024;-59
2023/01/03 03:14:33;;;;;;;2.67;1.17;;;6.60;99.90;;;;;;5070888;28;20074;-59
2023/01/03 03:17:03;;;;;;;0.95;0.90;;;6.60;99.50;;;;;;5093296;28;20036;-58
2023/01/03 03:25:18;;;;;;;2.05;1.13;;;6.40;99.90;;;;;;5093119;28;20105;-58
2023/01/03 03:30:32;;;;;;;2.55;1.00;;;6.30;99.90;;;;;;5083987;28;20400;-59
2023/01/03 03:33:05;;;;;;;0.80;0.80;;;6.30;99.90;;;;;;5110418;28;20040;-57
2023/01/03 03:35:35;;;;;;;2.40;0.95;;;6.20;99.90;;;;;;5083947;28;20468;-59
2023/01/03 03:38:04;;;;;;;4.13;1.23;;;6.20;99.90;;;;;;5069040;28;20109;-58
2023/01/03 03:46:20;;;;;;;2.80;1.00;;;6.10;99.90;;;;;;5070203;28;20445;-59
2023/01/03 03:51:48;;;;;;;2.15;1.10;;;6.00;99.90;;;;;;5110743;28;20053;-59
2023/01/03 03:54:18;;;;;;;1.75;1.05;;;6.00;99.90;;;;;;5093365;28;20055;-59
2023/01/03 03:56:48;;;;;;;2.70;1.00;;;5.90;99.90;;;;;;5110735;28;20339;-59
2023/01/03 03:59:17;;;;;;;2.63;0.95;;;5.90;99.90;;;;;;5077955;28;20031;-59
2023/01/03 04:01:43;;;;;;;1.10;1.00;;;5.90;99.90;;;;;;5110629;28;20038;-59
2023/01/03 04:04:17;;;;;;;3.75;1.15;;;5.90;99.90;;;;;;5092553;28;20106;-58
2023/01/03 04:06:48;;;;;;;2.17;1.02;;;5.80;99.90;;;;;;5104063;28;20503;-58
2023/01/03 04:09:14;;;;;;;4.28;1.00;;;5.90;99.90;;;;;;5075952;28;20418;-58
2023/01/03 04:11:40;;;;;;;12.13;1.55;;;5.90;99.90;;;;;;5110384;28;20028;-59
2023/01/03 04:14:06;;;;;;;4.15;1.15;;;5.90;99.90;;;;;;5091968;28;20019;-60
2023/01/03 04:16:31;;;;;;;1.20;0.85;;;5.90;99.90;;;;;;5110103;28;20050;-56
2023/01/03 04:18:57;;;;;;;2.03;1.05;;;5.90;99.90;;;;;;5090807;28;20614;-58
2023/01/03 04:21:22;;;;;;;1.70;1.02;;;5.90;99.90;;;;;;5110015;28;20500;-59
2023/01/03 04:23:47;;;;;;;2.50;1.05;;;5.80;99.90;;;;;;5087577;28;20028;-59
2023/01/03 04:26:13;;;;;;;3.65;0.90;;;5.80;99.90;;;;;;5100548;28;20059;-59
2023/01/03 04:28:38;;;;;;;2.60;1.27;;;5.80;99.90;;;;;;5094329;28;20546;-58
2023/01/03 04:31:04;;;;;;;3.95;1.20;;;5.70;99.90;;;;;;5109325;28;20032;-57
2023/01/03 04:33:30;;;;;;;1.05;0.80;;;5.70;99.90;;;;;;5088466;28;20400;-58
2023/01/03 04:35:55;;;;;;;2.17;1.17;;;5.60;99.90;;;;;;5109187;28;20039;-58
2023/01/03 04:38:21;;;;;;;6.10;1.30;;;5.60;99.90;;;;;;5098671;28;20081;-58
2023/01/03 04:40:46;;;;;;;3.40;1.60;;;5.60;99.90;;;;;;5090172;28;20107;-58
2023/01/03 04:45:56;;;;;;;4.22;1.02;;;5.50;99.90;;;;;;5069258;28;20451;-56
2023/01/03 04:48:21;;;;;;;3.75;1.20;;;5.50;99.90;;;;;;5106311;28;20023;-58
2023/01/03 04:50:52;;;;;;;6.90;1.50;;;5.40;99.90;;;;;;5089903;28;20030;-57
2023/01/03 04:53:18;;;;;;;3.28;1.23;;;5.40;99.90;;;;;;5107200;28;20027;-58
2023/01/03 04:55:51;;;;;;;4.57;1.20;;;5.30;99.90;;;;;;5088724;28;20039;-58
2023/01/03 04:58:17;;;;;;;4.18;1.17;;;5.30;99.90;;;;;;5107167;28;20024;-59
2023/01/03 05:00:42;;;;;;;2.60;1.08;;;5.30;99.90;;;;;;5089737;28;20032;-59
2023/01/03 05:03:08;;;;;;;3.65;1.30;;;5.20;99.90;;;;;;5107049;28;20027;-59
2023/01/03 05:05:36;;;;;;;2.17;1.20;;;5.20;99.90;;;;;;5092182;28;20495;-59
2023/01/03 05:08:10;;;;;;;4.82;1.33;;;5.20;99.90;;;;;;5093665;28;20115;-59
2023/01/03 05:10:39;;;;;;;4.88;1.38;;;5.20;99.90;;;;;;5089402;28;20116;-58
2023/01/03 05:13:04;;;;;;;2.03;1.20;;;5.20;99.90;;;;;;5106782;28;20028;-59
2023/01/03 05:15:35;;;;;;;6.15;1.50;;;5.30;99.90;;;;;;5089918;28;20039;-60
2023/01/03 05:18:00;;;;;;;2.08;1.15;;;5.30;99.90;;;;;;5082125;28;20039;-58
2023/01/03 05:26:06;;;;;;;7.75;1.40;;;5.50;99.90;;;;;;5083115;28;20438;-58
2023/01/03 05:28:32;;;;;;;5.03;1.60;;;5.50;99.90;;;;;;5107354;28;20639;-59
2023/01/03 05:30:58;;;;;;;3.75;1.33;;;5.60;99.90;;;;;;5087967;28;20465;-59
2023/01/03 05:33:24;;;;;;;3.15;1.30;;;5.60;99.90;;;;;;5106650;28;20049;-56
2023/01/03 05:35:49;;;;;;;2.55;1.30;;;5.60;99.90;;;;;;5091968;28;20028;-58
2023/01/03 05:38:15;;;;;;;3.60;1.52;;;5.60;99.90;;;;;;5113442;28;20096;-58
2023/01/03 05:40:41;;;;;;;1.70;1.25;;;5.70;99.90;;;;;;5092662;28;20107;-58
2023/01/03 05:43:06;;;;;;;3.35;1.60;;;5.70;99.90;;;;;;5113496;28;20095;-56
2023/01/03 05:45:34;;;;;;;4.85;1.42;;;5.70;99.90;;;;;;5093243;28;20042;-59
2023/01/03 05:48:00;;;;;;;3.72;1.58;;;5.70;99.90;;;;;;5072755;28;20037;-57
2023/01/03 05:50:25;;;;;;;4.80;1.60;;;5.70;99.90;;;;;;5111704;28;20133;-58
2023/01/03 05:52:51;;;;;;;4.72;1.55;;;5.70;99.90;;;;;;5091462;28;20439;-57
2023/01/03 05:55:17;;;;;;;5.93;2.00;;;5.70;99.90;;;;;;5112338;28;20039;-56
2023/01/03 05:57:42;;;;;;;4.22;1.50;;;5.70;99.90;;;;;;5091403;28;20032;-56
2023/01/03 06:00:08;;;;;;;3.97;1.58;;;5.70;99.90;;;;;;5112207;28;20031;-59
2023/01/03 06:02:34;;;;;;;4.55;1.60;;;5.70;99.90;;;;;;5091247;28;20413;-58
2023/01/03 06:04:59;;;;;;;5.43;1.88;;;5.70;99.90;;;;;;5101612;28;20027;-57
2023/01/03 06:07:27;;;;;;;4.18;1.65;;;5.70;99.90;;;;;;5106339;28;20028;-57
2023/01/03 06:09:53;;;;;;;2.53;1.52;;;5.60;99.90;;;;;;5092683;28;20396;-58
2023/01/03 06:12:18;;;;;;;4.80;1.50;;;5.50;99.90;;;;;;5094094;28;20051;-58
2023/01/03 06:14:44;;;;;;;2.17;1.33;;;5.40;99.90;;;;;;5112003;28;20690;-57
2023/01/03 06:19:53;;;;;;;4.45;1.52;;;5.30;99.90;;;;;;5072177;28;20035;-57
2023/01/03 06:22:19;;;;;;;4.30;1.60;;;5.20;99.90;;;;;;5094609;28;20040;-57
2023/01/03 06:24:44;;;;;;;2.50;2.22;;;5.00;99.90;;;;;;5111875;28;20119;-57
2023/01/03 06:27:09;;;;;;;6.10;1.90;;;5.00;99.90;;;;;;5090671;28;20051;-56
2023/01/03 06:29:35;;;;;;;2.35;1.30;;;4.90;99.90;;;;;;5110501;28;20035;-58
2023/01/03 06:32:00;;;;;;;6.88;1.88;;;4.80;99.90;;;;;;5090751;28;20102;-57
2023/01/03 06:34:26;;;;;;;4.85;2.17;;;4.70;99.90;;;;;;5111678;28;20036;-58
2023/01/03 06:36:51;;;;;;;2.35;1.63;;;4.60;99.90;;;;;;5090575;28;20103;-58
2023/01/03 06:39:17;;;;;;;3.88;2.28;;;4.50;99.90;;;;;;5111577;28;20498;-56
2023/01/03 06:41:42;;;;;;;3.42;1.60;;;4.50;99.90;;;;;;5100701;28;20031;-57
2023/01/03 06:44:10;;;;;;;5.70;1.95;;;4.40;99.90;;;;;;5092446;28;20040;-58
2023/01/03 06:54:53;;;;;;;5.30;1.83;;;4.10;99.90;;;;;;5071491;28;20166;-57
2023/01/03 06:57:18;;;;;;;3.80;1.70;;;4.10;99.90;;;;;;5093500;28;20111;-56
2023/01/03 06:59:44;;;;;;;5.95;2.08;;;4.00;99.90;;;;;;5110960;28;20620;-58
2023/01/03 07:02:09;;;;;;;3.75;1.83;;;4.00;99.90;;;;;;5089719;28;20032;-57
2023/01/03 07:04:35;;;;;;;4.55;1.52;;;3.90;99.90;;;;;;5110263;28;20027;-57
2023/01/03 07:07:00;;;;;;;5.32;1.65;;;3.90;99.90;;;;;;5083580;28;20046;-57
2023/01/03 07:09:26;;;;;;;6.25;1.60;;;3.80;99.90;;;;;;5111368;28;20039;-57
2023/01/03 07:11:52;;;;;;;4.72;1.67;;;3.80;99.90;;;;;;5088775;28;20081;-58
2023/01/03 07:14:17;;;;;;;3.17;1.52;;;3.70;99.90;;;;;;5111190;28;20114;-58
2023/01/03 07:16:45;;;;;;;4.68;2.20;;;3.70;99.90;;;;;;5100093;28;20027;-58
2023/01/03 07:19:14;;;;;;;4.63;2.13;;;3.60;99.90;;;;;;5091505;28;20020;-59
2023/01/03 07:21:40;;;;;;;3.70;2.13;;;3.60;99.90;;;;;;5109503;28;20043;-58
2023/01/03 07:24:07;;;;;;;5.03;2.78;;;3.50;99.90;;;;;;5091651;28;20113;-59
2023/01/03 07:26:34;;;;;;;3.85;1.80;;;3.50;99.90;;;;;;5108727;28;20112;-58
2023/01/03 07:29:01;;;;;;;6.05;2.08;;;3.50;99.90;;;;;;5091520;28;20035;-58
2023/01/03 07:31:27;;;;;;;6.65;2.80;;;3.40;99.90;;;;;;5109062;28;20028;-58
2023/01/03 07:33:53;;;;;;;4.32;2.72;;;3.40;99.90;;;;;;5091641;28;20105;-59
2023/01/03 07:36:20;;;;;;;5.78;2.40;;;3.40;99.90;;;;;;5108650;28;20227;-58
2023/01/03 07:38:46;;;;;;;4.15;2.10;;;3.40;99.90;;;;;;5111343;28;20016;-57
2023/01/03 07:41:13;;;;;;;3.60;2.17;;;3.40;99.90;;;;;;5095313;28;20028;-57
2023/01/03 07:43:44;;;;;;;6.72;2.33;;;3.30;99.90;;;;;;5090845;28;20016;-58
2023/01/03 07:46:15;;;;;;;3.03;1.80;;;3.30;99.90;;;;;;5070558;28;20044;-58
2023/01/03 07:48:42;;;;;;;4.03;1.63;;;3.30;99.90;;;;;;5085225;28;20541;-58
2023/01/03 07:51:09;;;;;;;5.07;2.10;;;3.30;99.90;;;;;;5110388;28;20452;-58
2023/01/03 07:53:35;;;;;;;6.28;1.80;;;3.30;99.90;;;;;;5094023;28;20037;-58
2023/01/03 07:56:04;;;;;;;3.40;2.00;;;3.30;99.90;;;;;;5095959;28;20036;-58
2023/01/03 07:58:31;;;;;;;3.65;1.95;;;3.30;99.90;;;;;;5107945;28;20050;-56
2023/01/03 08:01:01;;;;;;;3.92;2.08;;;3.30;99.90;;;;;;5085682;28;20024;-58
2023/01/03 08:03:27;;;;;;;5.82;2.15;;;3.40;99.90;;;;;;5069587;28;20053;-57
2023/01/03 08:05:52;;;;;;;6.25;2.35;;;3.40;99.90;;;;;;5099720;28;20090;-58
2023/01/03 08:08:18;;;;;;;5.32;2.10;;;3.40;99.90;;;;;;5088812;28;20032;-58
2023/01/03 08:13:27;;;;;;;6.43;2.22;;;3.50;99.90;;;;;;5089011;28;20455;-58
2023/01/03 08:15:55;;;;;;;3.05;2.10;;;3.50;99.90;;;;;;5109811;28;20059;-60
2023/01/03 08:18:25;;;;;;;7.43;2.15;;;3.60;99.90;;;;;;5088724;28;20028;-58
2023/01/03 08:20:53;;;;;;;2.60;2.00;;;3.70;99.90;;;;;;5110175;28;20077;-58
2023/01/03 08:23:19;;;;;;;4.05;2.15;;;3.80;99.90;;;;;;5088473;28;20032;-60
2023/01/03 08:25:44;;;;;;;6.25;2.60;;;3.90;99.90;;;;;;5104358;28;20055;-58
2023/01/03 08:28:10;;;;;;;3.63;2.17;;;3.90;99.90;;;;;;5103059;28;20528;-58
2023/01/03 08:30:47;;;;;;;4.65;2.05;;;4.00;99.90;;;;;;5090431;28;20140;-58
2023/01/03 08:33:14;;;;;;;5.88;2.58;;;4.20;99.90;;;;;;5081599;28;20035;-59
2023/01/03 08:35:49;;;;;;;5.88;2.47;;;4.30;99.90;;;;;;5108197;28;20035;-57
2023/01/03 08:38:23;;;;;;;3.97;2.22;;;4.40;99.90;;;;;;5083106;28;20016;-58
2023/01/03 08:40:48;;;;;;;5.25;2.70;;;4.50;99.90;;;;;;5069667;28;20028;-58
2023/01/03 08:43:14;;;;;;;4.68;2.53;;;4.60;99.90;;;;;;5091667;28;20081;-58
2023/01/03 08:45:40;;;;;;;5.68;2.35;;;4.70;99.90;;;;;;5109192;28;20032;-58
2023/01/03 08:48:08;;;;;;;3.33;2.33;;;4.90;99.90;;;;;;5084074;28;20484;-59
2023/01/03 08:50:34;;;;;;;4.22;2.67;;;5.00;99.90;;;;;;5108616;28;20033;-58
2023/01/03 08:53:00;;;;;;;4.68;2.55;;;5.10;99.90;;;;;;5095547;28;20035;-58
2023/01/03 08:55:25;;;;;;;8.35;3.00;;;5.30;99.90;;;;;;5110117;28;20026;-58
2023/01/03 08:57:51;;;;;;;5.63;2.72;;;5.40;99.90;;;;;;5094487;28;20380;-59
2023/01/03 09:00:17;;;;;;;6.18;2.88;;;5.50;99.90;;;;;;5109991;28;20038;-58
2023/01/03 09:02:42;;;;;;;6.07;2.40;;;5.60;99.90;;;;;;5091957;28;20142;-58
2023/01/03 09:05:08;;;;;;;4.40;2.70;;;5.80;99.90;;;;;;5098398;28;20733;-58
2023/01/03 09:07:34;;;;;;;5.93;2.60;;;5.90;99.90;;;;;;5091545;28;20027;-57
2023/01/03 09:09:59;;;;;;;6.72;2.47;;;6.00;99.90;;;;;;5109220;28;20503;-54
2023/01/03 09:12:26;;;;;;;5.60;2.55;;;6.20;99.90;;;;;;5107249;28;20447;-57
2023/01/03 09:14:51;;;;;;;5.15;2.45;;;6.30;99.90;;;;;;5108485;28;20034;-57
2023/01/03 09:17:17;;;;;;;5.45;2.72;;;6.40;99.90;;;;;;5081900;28;20032;-57
2023/01/03 09:19:43;;;;;;;6.00;2.28;;;6.50;99.90;;;;;;5109887;28;20054;-57
2023/01/03 09:22:08;;;;;;;8.13;3.00;;;6.60;99.90;;;;;;5088143;28;20027;-57
2023/01/03 09:24:34;;;;;;;7.82;2.42;;;6.70;99.90;;;;;;5109269;28;20510;-57
2023/01/03 09:26:59;;;;;;;5.82;2.85;;;6.80;99.90;;;;;;5076804;28;20051;-57
2023/01/03 09:29:24;;;;;;;11.38;2.65;;;6.90;99.90;;;;;;5086107;28;20028;-58
2023/01/03 09:31:50;;;;;;;5.03;3.00;;;7.00;99.90;;;;;;5086757;28;20068;-57
2023/01/03 09:34:15;;;;;;;9.15;2.78;;;7.10;99.90;;;;;;5107814;28;20053;-56
2023/01/03 09:36:41;;;;;;;9.38;2.58;;;7.20;99.90;;;;;;5086573;28;20031;-59
2023/01/03 09:39:06;;;;;;;5.15;2.40;;;7.20;99.90;;;;;;5087549;28;20028;-57
2023/01/03 09:41:32;;;;;;;9.23;2.60;;;7.30;99.90;;;;;;5085991;28;20032;-56
2023/01/03 09:44:04;;;;;;;4.32;2.20;;;7.40;99.90;;;;;;5107305;28;20038;-58
2023/01/03 09:46:31;;;;;;;5.78;2.63;;;7.50;99.90;;;;;;5085862;28;20034;-59
2023/01/03 09:48:57;;;;;;;6.88;2.50;;;7.50;99.90;;;;;;5107821;28;20027;-58
2023/01/03 10:06:24;;;;;;;4.13;1.95;;;7.80;99.90;;;;;;5073104;28;20514;-57
2023/01/03 10:09:15;;;;;;;5.30;2.55;;;7.80;99.90;;;;;;5066107;28;20021;-57
2023/01/03 10:11:47;;;;;;;4.85;1.88;;;7.90;99.90;;;;;;5083372;28;20028;-57
2023/01/03 10:14:46;;;;;;;4.45;2.30;;;8.00;99.90;;;;;;5067664;28;20033;-57
2023/01/03 10:17:24;;;;;;;3.45;2.00;;;8.00;97.40;;;;;;5067395;28;20090;-58
2023/01/03 10:20:21;;;;;;;2.58;1.50;;;8.00;96.10;;;;;;5069574;28;20040;-57
2023/01/03 10:22:48;;;;;;;3.35;1.60;;;8.00;92.70;;;;;;5111820;28;20433;-58
2023/01/03 10:25:20;;;;;;;5.28;1.63;;;8.00;95.10;;;;;;5094681;28;20529;-56
2023/01/03 10:27:50;;;;;;;3.63;1.60;;;8.00;95.70;;;;;;5111570;28;20023;-58
2023/01/03 10:30:37;;;;;;;4.78;1.30;;;8.00;96.00;;;;;;5080433;28;20024;-58
2023/01/03 10:33:26;;;;;;;2.95;1.42;;;8.00;95.80;;;;;;5111380;28;20034;-57
2023/01/03 10:35:52;;;;;;;4.78;1.60;;;8.00;95.30;;;;;;5089213;28;20028;-59
2023/01/03 10:38:17;;;;;;;3.17;1.50;;;8.10;95.50;;;;;;5110842;28;20487;-58
2023/01/03 10:40:53;;;;;;;3.88;1.38;;;8.10;92.80;;;;;;5091571;28;20114;-57
2023/01/03 10:43:30;;;;;;;;;;;8.00;92.50;;;;;;5111850;28;20024;-59
2023/01/03 10:46:00;;;;;;;3.53;1.58;;;8.00;87.50;;;;;;5098441;28;19916;-59
2023/01/03 10:48:41;;;;;;;3.13;1.60;;;8.00;91.00;;;;;;5083837;28;20477;-57
2023/01/03 10:51:26;;;;;;;3.08;1.60;;;7.90;91.70;;;;;;5091917;28;20490;-57
2023/01/03 10:53:54;;;;;;;3.72;2.35;;;7.90;92.10;;;;;;5098522;28;20020;-57
2023/01/03 10:56:21;;;;;;;2.55;1.70;;;7.80;91.80;;;;;;5091825;28;20039;-56
2023/01/03 10:58:46;;;;;;;8.40;1.73;;;7.80;91.50;;;;;;5092613;28;20122;-59
2023/01/03 11:01:23;;;;;;;8.20;2.00;;;7.80;91.50;;;;;;5099528;28;20119;-58
2023/01/03 11:04:13;;;;;;;3.08;1.48;;;7.80;91.00;;;;;;5098526;28;20036;-58
2023/01/03 11:06:56;;;;;;;4.40;1.60;;;7.90;89.60;;;;;;5078435;28;20063;-58
2023/01/03 11:09:22;;;;;;;3.25;1.80;;;8.10;91.50;;;;;;5079994;28;20085;-59
2023/01/03 11:11:58;;;;;;;3.13;1.80;;;8.30;91.00;;;;;;5087393;28;20044;-57
2023/01/03 11:14:25;;;;;;;7.43;2.63;;;8.40;90.10;;;;;;5080809;28;20032;-56
2023/01/03 11:17:00;;;;;;;4.80;2.03;;;8.40;85.00;;;;;;5086861;28;20097;-58
2023/01/03 11:19:31;;;;;;;6.50;2.10;;;8.50;87.70;;;;;;5089062;28;20039;-59
2023/01/03 11:22:00;;;;;;;5.22;2.25;;;8.60;87.10;;;;;;5085001;28;20036;-57
2023/01/03 11:24:47;;;;;;;5.22;2.33;;;8.60;84.90;;;;;;5107002;28;20034;-58
2023/01/03 11:27:40;;;;;;;6.38;2.20;;;8.50;84.40;;;;;;5077225;28;20040;-58
2023/01/03 11:30:39;;;;;;;4.47;2.33;;;8.50;84.40;;;;;;5090852;28;20107;-54
2023/01/03 11:33:39;;;;;;;3.08;2.40;;;8.50;83.20;;;;;;5076683;28;20031;-51
2023/01/03 11:36:25;;;;;;;13.07;2.50;;;8.50;84.10;;;;;;5090230;28;20182;-55
2023/01/03 11:38:52;;;;;;;4.80;2.20;;;8.40;84.40;;;;;;5083614;28;20032;-56
2023/01/03 11:41:51;;;;;;;4.90;2.42;;;8.40;85.90;;;;;;5100383;28;20028;-56
2023/01/03 11:44:47;;;;;;;4.10;2.33;;;8.30;85.00;;;;;;5090973;28;20047;-55
2023/01/03 11:47:40;;;;;;;6.30;2.58;;;8.20;84.70;;;;;;5083048;28;20082;-56
2023/01/03 11:50:25;;;;;;;7.22;2.60;;;8.20;86.10;;;;;;5070556;28;20077;-54
2023/01/03 11:53:01;;;;;;;6.85;2.92;;;8.10;87.30;;;;;;5087604;28;20032;-54
2023/01/03 11:55:59;;;;;;;7.25;3.80;;;8.10;88.50;;;;;;5070403;28;20028;-51
2023/01/03 11:58:45;;;;;;;5.85;2.47;;;8.00;87.20;;;;;;5077793;28;20131;-52
2023/01/03 12:01:31;;;;;;;5.55;2.70;;;7.90;89.40;;;;;;5075530;28;20032;-56
2023/01/03 12:04:27;;;;;;;4.53;2.60;;;7.80;89.10;;;;;;5083337;28;20035;-56
2023/01/03 12:07:15;;;;;;;4.43;2.33;;;7.70;90.30;;;;;;5083117;28;20074;-56
2023/01/03 12:10:05;;;;;;;4.63;2.45;;;7.60;90.90;;;;;;5080188;28;20523;-55
2023/01/03 12:12:49;;;;;;;5.72;3.40;;;7.60;90.90;;;;;;5084788;28;20077;-57
2023/01/03 12:15:21;;;;;;;3.92;2.53;;;7.60;91.10;;;;;;5078467;28;20042;-54
2023/01/03 12:17:58;;;;;;;7.65;2.92;;;7.50;91.50;;;;;;5087116;28;20032;-58
2023/01/03 12:20:30;;;;;;;6.63;2.83;;;7.60;92.10;;;;;;5081573;28;20031;-57
2023/01/03 12:23:20;;;;;;;6.78;3.60;;;7.70;91.20;;;;;;5086053;28;20028;-56
2023/01/03 12:25:51;;;;;;;4.90;3.17;;;7.70;91.50;;;;;;5082906;28;20040;-57
2023/01/03 12:28:28;;;;;;;7.72;2.97;;;7.70;91.50;;;;;;5095652;28;20617;-56
2023/01/03 12:31:04;;;;;;;6.40;2.72;;;7.60;91.70;;;;;;5077409;28;20020;-56
2023/01/03 12:34:04;;;;;;;5.97;2.45;;;7.50;92.20;;;;;;5083816;28;20603;-57
2023/01/03 12:36:51;;;;;;;5.60;2.95;;;7.50;92.80;;;;;;5061158;28;20044;-53
2023/01/03 12:39:45;;;;;;;3.92;2.42;;;7.40;93.40;;;;;;5086891;28;20109;-57
2023/01/03 12:42:26;;;;;;;4.57;2.78;;;7.40;93.80;;;;;;5081988;28;20135;-52
2023/01/03 12:45:09;;;;;;;9.48;3.42;;;7.40;94.20;;;;;;5079687;28;20779;-57
2023/01/03 12:47:42;;;;;;;5.90;2.85;;;7.50;94.70;;;;;;5085929;28;20032;-57
2023/01/03 12:50:09;;;;;;;7.03;3.20;;;7.50;93.60;;;;;;5084019;28;20054;-56
2023/01/03 12:52:37;;;;;;;4.68;2.50;;;7.50;93.50;;;;;;5085608;28;20443;-57
2023/01/03 12:55:23;;;;;;;4.07;2.00;;;7.60;91.30;;;;;;5089734;28;20043;-56
2023/01/03 12:58:13;;;;;;;3.35;1.50;;;7.50;90.10;;;;;;5083392;28;20240;-56
2023/01/03 13:01:04;;;;;;;3.90;1.63;;;7.40;87.30;;;;;;5070417;28;20495;-55
2023/01/03 13:03:40;;;;;;;5.25;1.85;;;7.40;87.30;;;;;;5087459;28;20743;-56
2023/01/03 13:06:14;;;;;;;;;;;7.40;86.30;;;;;;5078090;28;20055;-55
2023/01/03 13:08:54;;;;;;;4.05;1.70;;;7.50;83.70;;;;;;5089621;28;19993;-56
2023/01/03 13:11:43;;;;;;;3.72;1.88;;;7.50;85.40;;;;;;5081158;28;20092;-53
2023/01/03 13:14:24;;;;;;;3.00;1.88;;;7.50;86.20;;;;;;5085639;28;20032;-53
2023/01/03 13:16:52;;;;;;;5.78;1.83;;;7.60;87.70;;;;;;5099039;28;20036;-55
2023/01/03 13:19:21;;;;;;;6.47;1.90;;;7.70;87.00;;;;;;5094945;28;20032;-56
2023/01/03 13:21:52;;;;;;;4.95;1.98;;;7.70;86.60;;;;;;5103674;28;20023;-57
2023/01/03 13:24:46;;;;;;;3.63;1.58;;;7.70;85.60;;;;;;5103002;28;20028;-57
2023/01/03 13:27:23;;;;;;;4.32;2.17;;;7.70;86.20;;;;;;5083592;28;20135;-58
2023/01/03 13:29:49;;;;;;;2.72;1.73;;;7.70;87.20;;;;;;5082940;28;20047;-55
2023/01/03 13:32:20;;;;;;;2.67;2.00;;;7.50;85.10;;;;;;5088677;28;20481;-57
2023/01/03 13:34:57;;;;;;;4.68;2.13;;;7.50;86.20;;;;;;5089794;28;20492;-56
2023/01/03 13:37:28;;;;;;;7.28;2.10;;;7.40;86.80;;;;;;5086796;28;20034;-56
2023/01/03 13:40:28;;;;;;;8.35;2.60;;;7.30;87.90;;;;;;5092250;28;20511;-56
2023/01/03 13:43:10;;;;;;;4.32;1.85;;;7.20;88.30;;;;;;5083749;28;20028;-57
2023/01/03 13:45:35;;;;;;;3.38;1.95;;;7.10;89.00;;;;;;5075836;28;20044;-57
2023/01/03 13:48:20;;;;;;;2.85;1.80;;;7.00;89.00;;;;;;5099290;28;20020;-58
2023/01/03 13:51:06;;;;;;;3.85;2.45;;;6.90;90.10;;;;;;5085817;28;20109;-59
2023/01/03 13:53:37;;;;;;;4.55;1.55;;;6.90;90.70;;;;;;5073467;28;20024;-58
2023/01/03 13:56:15;;;;;;;6.03;2.17;;;6.90;91.00;;;;;;5086969;28;20037;-57
2023/01/03 13:58:47;;;;;;;4.63;1.95;;;6.80;91.20;;;;;;5088974;28;20519;-58
2023/01/03 14:01:20;;;;;;;4.13;2.35;;;6.80;91.30;;;;;;5095078;28;20122;-58
2023/01/03 14:04:11;;;;;;;4.45;2.08;;;6.70;91.60;;;;;;5092037;28;20032;-58
2023/01/03 14:06:55;;;;;;;5.10;2.15;;;6.70;91.50;;;;;;5085087;28;20021;-57
2023/01/03 14:09:42;;;;;;;4.68;2.13;;;6.60;91.60;;;;;;5083875;28;20031;-57
2023/01/03 14:12:24;;;;;;;2.88;2.10;;;6.50;91.40;;;;;;5081410;28;20073;-56
2023/01/03 14:14:55;;;;;;;6.07;2.38;;;6.50;91.70;;;;;;5075367;28;20036;-59
2023/01/03 14:17:29;;;;;;;2.17;1.90;;;6.40;91.90;;;;;;5092350;28;20036;-56
2023/01/03 14:20:00;;;;;;;5.82;2.00;;;6.30;92.10;;;;;;5089864;28;20063;-59
2023/01/03 14:22:37;;;;;;;4.13;2.17;;;6.30;92.50;;;;;;5084212;28;20395;-58
2023/01/03 14:25:04;;;;;;;6.70;2.42;;;6.20;92.60;;;;;;5086574;28;20062;-57
2023/01/03 14:27:39;;;;;;;3.90;1.80;;;6.10;92.90;;;;;;5087343;28;20655;-57